sensor_id;sensor_type;location;lat;lon;timestamp;pressure;altitude;pressure_sealevel;temperature;humidity
8366;BME280;4220;42.502;24.188;2022-12-05T00:01:30;96262.81;;;6.63;100.00
8366;BME280;4220;42.502;24.188;2022-12-05T00:04:01;96270.06;;;6.61;100.00
8366;BME280;4220;42.502;24.188;2022-12-05T00:06:29;96267.25;;;6.63;100.00
8366;BME280;4220;42.502;24.188;2022-12-05T00:08:57;96264.78;;;6.61;100.00
8366;BME280;4220;42.502;24.188;2022-12-05T00:11:25;96274.47;;;6.69;100.00
8366;BME280;4220;42.502;24.188;2022-12-05T00:13:54;96273.38;;;6.55;100.00
8366;BME280;4220;42.502;24.188;2022-12-05T00:16:22;96278.97;;;6.52;100.00
8366;BME280;4220;42.502;24.188;2022-12-05T00:18:51;96274.03;;;6.49;100.00
8366;BME280;4220;42.502;24.188;2022-12-05T00:21:20;96275.88;;;6.48;100.00
8366;BME280;4220;42.502;24.188;2022-12-05T00:23:48;96283.09;;;6.54;100.00
8366;BME280;4220;42.502;24.188;2022-12-05T00:26:15;96274.34;;;6.62;100.00
8366;BME280;4220;42.502;24.188;2022-12-05T00:28:42;96270.38;;;6.66;100.00
8366;BME280;4220;42.502;24.188;2022-12-05T00:31:11;96272.03;;;6.67;100.00
8366;BME280;4220;42.502;24.188;2022-12-05T00:33:38;96271.72;;;6.62;100.00
8366;BME280;4220;42.502;24.188;2022-12-05T00:36:08;96264.63;;;6.63;100.00
8366;BME280;4220;42.502;24.188;2022-12-05T00:38:36;96264.31;;;6.66;100.00
8366;BME280;4220;42.502;24.188;2022-12-05T00:41:04;96262.00;;;6.54;100.00
8366;BME280;4220;42.502;24.188;2022-12-05T00:43:31;96250.00;;;6.44;100.00
8366;BME280;4220;42.502;24.188;2022-12-05T00:46:00;96262.50;;;6.42;100.00
8366;BME280;4220;42.502;24.188;2022-12-05T00:48:27;96263.19;;;6.36;100.00
8366;BME280;4220;42.502;24.188;2022-12-05T00:50:59;96241.47;;;6.26;100.00
8366;BME280;4220;42.502;24.188;2022-12-05T00:53:27;96259.22;;;6.40;100.00
8366;BME280;4220;42.502;24.188;2022-12-05T00:55:54;96258.25;;;6.33;100.00
8366;BME280;4220;42.502;24.188;2022-12-05T00:58:21;96251.00;;;6.35;100.00
8366;BME280;4220;42.502;24.188;2022-12-05T01:00:48;96257.56;;;6.39;100.00
8366;BME280;4220;42.502;24.188;2022-12-05T01:03:14;96261.84;;;6.48;100.00
8366;BME280;4220;42.502;24.188;2022-12-05T01:05:41;96258.72;;;6.52;100.00
8366;BME280;4220;42.502;24.188;2022-12-05T01:08:08;96253.91;;;6.56;100.00
8366;BME280;4220;42.502;24.188;2022-12-05T01:10:36;96253.59;;;6.59;100.00
8366;BME280;4220;42.502;24.188;2022-12-05T01:13:03;96258.72;;;6.61;100.00
8366;BME280;4220;42.502;24.188;2022-12-05T01:15:30;96257.69;;;6.62;100.00
8366;BME280;4220;42.502;24.188;2022-12-05T01:17:57;96252.94;;;6.57;100.00
8366;BME280;4220;42.502;24.188;2022-12-05T01:20:23;96230.22;;;6.48;100.00
8366;BME280;4220;42.502;24.188;2022-12-05T01:22:50;96257.03;;;6.59;100.00
8366;BME280;4220;42.502;24.188;2022-12-05T01:25:17;96253.59;;;6.59;100.00
8366;BME280;4220;42.502;24.188;2022-12-05T01:27:45;96252.44;;;6.62;100.00
8366;BME280;4220;42.502;24.188;2022-12-05T01:30:13;96253.06;;;6.64;100.00
8366;BME280;4220;42.502;24.188;2022-12-05T01:32:39;96250.44;;;6.64;100.00
8366;BME280;4220;42.502;24.188;2022-12-05T01:35:07;96254.09;;;6.63;100.00
8366;BME280;4220;42.502;24.188;2022-12-05T01:37:34;96193.38;;;6.32;100.00
8366;BME280;4220;42.502;24.188;2022-12-05T01:40:00;96245.34;;;6.62;100.00
8366;BME280;4220;42.502;24.188;2022-12-05T01:42:28;96245.16;;;6.64;100.00
8366;BME280;4220;42.502;24.188;2022-12-05T01:45:08;96225.44;;;6.51;100.00
8366;BME280;4220;42.502;24.188;2022-12-05T01:47:38;96231.84;;;6.57;100.00
8366;BME280;4220;42.502;24.188;2022-12-05T01:50:06;96190.91;;;6.30;100.00
8366;BME280;4220;42.502;24.188;2022-12-05T01:52:34;96233.16;;;6.61;100.00
8366;BME280;4220;42.502;24.188;2022-12-05T01:55:05;96230.50;;;6.61;100.00
8366;BME280;4220;42.502;24.188;2022-12-05T01:57:33;96236.28;;;6.56;100.00
8366;BME280;4220;42.502;24.188;2022-12-05T02:00:07;96226.59;;;6.57;100.00
8366;BME280;4220;42.502;24.188;2022-12-05T02:02:35;96183.97;;;6.37;100.00
8366;BME280;4220;42.502;24.188;2022-12-05T02:05:05;96222.13;;;6.66;100.00
8366;BME280;4220;42.502;24.188;2022-12-05T02:07:34;96226.22;;;6.68;100.00
8366;BME280;4220;42.502;24.188;2022-12-05T02:10:05;96217.31;;;6.69;100.00
8366;BME280;4220;42.502;24.188;2022-12-05T02:12:33;96218.47;;;6.67;100.00
8366;BME280;4220;42.502;24.188;2022-12-05T02:15:17;96226.56;;;6.65;100.00
8366;BME280;4220;42.502;24.188;2022-12-05T02:17:53;96217.88;;;6.48;100.00
8366;BME280;4220;42.502;24.188;2022-12-05T02:20:32;96224.00;;;6.41;100.00
8366;BME280;4220;42.502;24.188;2022-12-05T02:23:16;96219.25;;;6.28;100.00
8366;BME280;4220;42.502;24.188;2022-12-05T02:26:14;96219.06;;;6.30;100.00
8366;BME280;4220;42.502;24.188;2022-12-05T02:29:11;96216.28;;;6.31;100.00
8366;BME280;4220;42.502;24.188;2022-12-05T02:31:49;96217.25;;;6.38;100.00
8366;BME280;4220;42.502;24.188;2022-12-05T02:34:22;96226.97;;;6.22;100.00
8366;BME280;4220;42.502;24.188;2022-12-05T02:36:55;96212.50;;;6.18;100.00
8366;BME280;4220;42.502;24.188;2022-12-05T02:39:30;96218.91;;;6.23;100.00
8366;BME280;4220;42.502;24.188;2022-12-05T02:42:03;96222.69;;;6.29;100.00
8366;BME280;4220;42.502;24.188;2022-12-05T02:44:38;96221.69;;;6.30;100.00
8366;BME280;4220;42.502;24.188;2022-12-05T02:47:08;96216.59;;;6.28;100.00
8366;BME280;4220;42.502;24.188;2022-12-05T02:49:39;96219.72;;;6.32;100.00
8366;BME280;4220;42.502;24.188;2022-12-05T02:52:10;96223.81;;;6.34;100.00
8366;BME280;4220;42.502;24.188;2022-12-05T02:54:41;96206.22;;;6.27;100.00
8366;BME280;4220;42.502;24.188;2022-12-05T02:57:09;96226.44;;;6.42;100.00
8366;BME280;4220;42.502;24.188;2022-12-05T02:59:37;96222.47;;;6.46;100.00
8366;BME280;4220;42.502;24.188;2022-12-05T03:02:04;96213.78;;;6.46;100.00
8366;BME280;4220;42.502;24.188;2022-12-05T03:04:32;96216.88;;;6.49;100.00
8366;BME280;4220;42.502;24.188;2022-12-05T03:07:01;96217.38;;;6.45;100.00
8366;BME280;4220;42.502;24.188;2022-12-05T03:09:34;96221.31;;;6.49;100.00
8366;BME280;4220;42.502;24.188;2022-12-05T03:12:07;96221.81;;;6.52;100.00
8366;BME280;4220;42.502;24.188;2022-12-05T03:14:40;96208.47;;;6.54;100.00
8366;BME280;4220;42.502;24.188;2022-12-05T03:17:10;96207.69;;;6.45;100.00
8366;BME280;4220;42.502;24.188;2022-12-05T03:19:48;96210.63;;;6.42;100.00
8366;BME280;4220;42.502;24.188;2022-12-05T03:22:20;96205.22;;;6.36;100.00
8366;BME280;4220;42.502;24.188;2022-12-05T03:24:50;96203.25;;;6.30;100.00
8366;BME280;4220;42.502;24.188;2022-12-05T03:27:20;96209.16;;;6.40;100.00
8366;BME280;4220;42.502;24.188;2022-12-05T03:29:53;96191.41;;;6.26;100.00
8366;BME280;4220;42.502;24.188;2022-12-05T03:32:24;96213.09;;;6.44;100.00
8366;BME280;4220;42.502;24.188;2022-12-05T03:35:03;96205.56;;;6.41;100.00
8366;BME280;4220;42.502;24.188;2022-12-05T03:37:40;96202.91;;;6.41;100.00
8366;BME280;4220;42.502;24.188;2022-12-05T03:40:16;96196.13;;;6.46;100.00
8366;BME280;4220;42.502;24.188;2022-12-05T03:42:50;96202.22;;;6.55;100.00
8366;BME280;4220;42.502;24.188;2022-12-05T03:45:24;96184.94;;;6.44;100.00
8366;BME280;4220;42.502;24.188;2022-12-05T03:48:00;96195.97;;;6.48;100.00
8366;BME280;4220;42.502;24.188;2022-12-05T03:50:34;96203.88;;;6.48;100.00
8366;BME280;4220;42.502;24.188;2022-12-05T03:53:04;96192.84;;;6.44;100.00
8366;BME280;4220;42.502;24.188;2022-12-05T03:55:35;96197.13;;;6.45;100.00
8366;BME280;4220;42.502;24.188;2022-12-05T03:58:06;96199.31;;;6.34;100.00
8366;BME280;4220;42.502;24.188;2022-12-05T04:00:38;96206.03;;;6.36;100.00
8366;BME280;4220;42.502;24.188;2022-12-05T04:03:09;96199.97;;;6.28;100.00
8366;BME280;4220;42.502;24.188;2022-12-05T04:05:42;96197.84;;;6.31;100.00
8366;BME280;4220;42.502;24.188;2022-12-05T04:08:13;96207.22;;;6.34;100.00
8366;BME280;4220;42.502;24.188;2022-12-05T04:10:44;96203.56;;;6.35;100.00
8366;BME280;4220;42.502;24.188;2022-12-05T04:13:18;96191.09;;;6.29;100.00
8366;BME280;4220;42.502;24.188;2022-12-05T04:15:50;96178.56;;;6.23;100.00
8366;BME280;4220;42.502;24.188;2022-12-05T04:18:38;96182.19;;;6.22;100.00
8366;BME280;4220;42.502;24.188;2022-12-05T04:21:09;96168.03;;;6.23;100.00
8366;BME280;4220;42.502;24.188;2022-12-05T04:23:54;96210.31;;;6.45;100.00
8366;BME280;4220;42.502;24.188;2022-12-05T04:26:41;96199.28;;;6.42;100.00
8366;BME280;4220;42.502;24.188;2022-12-05T04:29:16;96210.78;;;6.49;100.00
8366;BME280;4220;42.502;24.188;2022-12-05T04:31:51;96216.06;;;6.49;100.00
8366;BME280;4220;42.502;24.188;2022-12-05T04:34:23;96205.03;;;6.45;100.00
8366;BME280;4220;42.502;24.188;2022-12-05T04:36:57;96211.28;;;6.52;100.00
8366;BME280;4220;42.502;24.188;2022-12-05T04:39:29;96207.66;;;6.53;100.00
8366;BME280;4220;42.502;24.188;2022-12-05T04:42:01;96196.97;;;6.39;100.00
8366;BME280;4220;42.502;24.188;2022-12-05T04:44:35;96209.47;;;6.45;100.00
8366;BME280;4220;42.502;24.188;2022-12-05T04:47:06;96204.34;;;6.51;100.00
8366;BME280;4220;42.502;24.188;2022-12-05T04:49:35;96204.50;;;6.58;100.00
8366;BME280;4220;42.502;24.188;2022-12-05T04:52:06;96214.38;;;6.64;100.00
8366;BME280;4220;42.502;24.188;2022-12-05T04:54:37;96210.75;;;6.65;100.00
8366;BME280;4220;42.502;24.188;2022-12-05T04:57:11;96210.25;;;6.62;100.00
8366;BME280;4220;42.502;24.188;2022-12-05T04:59:38;96205.81;;;6.54;100.00
8366;BME280;4220;42.502;24.188;2022-12-05T05:02:07;96162.75;;;6.31;100.00
8366;BME280;4220;42.502;24.188;2022-12-05T05:04:36;96218.22;;;6.53;100.00
8366;BME280;4220;42.502;24.188;2022-12-05T05:07:07;96217.84;;;6.56;100.00
8366;BME280;4220;42.502;24.188;2022-12-05T05:09:35;96213.41;;;6.57;100.00
8366;BME280;4220;42.502;24.188;2022-12-05T05:12:02;96213.09;;;6.52;100.00
8366;BME280;4220;42.502;24.188;2022-12-05T05:14:29;96219.69;;;6.48;100.00
8366;BME280;4220;42.502;24.188;2022-12-05T05:16:57;96222.00;;;6.51;100.00
8366;BME280;4220;42.502;24.188;2022-12-05T05:19:24;96214.22;;;6.57;100.00
8366;BME280;4220;42.502;24.188;2022-12-05T05:21:51;96217.00;;;6.64;100.00
8366;BME280;4220;42.502;24.188;2022-12-05T05:24:20;96225.88;;;6.71;100.00
8366;BME280;4220;42.502;24.188;2022-12-05T05:26:48;96223.59;;;6.68;100.00
8366;BME280;4220;42.502;24.188;2022-12-05T05:29:15;96225.25;;;6.61;100.00
8366;BME280;4220;42.502;24.188;2022-12-05T05:31:42;96233.50;;;6.58;100.00
8366;BME280;4220;42.502;24.188;2022-12-05T05:34:09;96231.84;;;6.65;100.00
8366;BME280;4220;42.502;24.188;2022-12-05T05:36:37;96230.50;;;6.69;100.00
8366;BME280;4220;42.502;24.188;2022-12-05T05:39:05;96181.53;;;6.36;100.00
8366;BME280;4220;42.502;24.188;2022-12-05T05:41:34;96186.28;;;6.40;100.00
8366;BME280;4220;42.502;24.188;2022-12-05T05:44:02;96221.28;;;6.65;100.00
8366;BME280;4220;42.502;24.188;2022-12-05T05:46:32;96199.44;;;6.48;100.00
8366;BME280;4220;42.502;24.188;2022-12-05T05:48:59;96241.34;;;6.74;100.00
8366;BME280;4220;42.502;24.188;2022-12-05T05:51:26;96246.31;;;6.77;100.00
8366;BME280;4220;42.502;24.188;2022-12-05T05:53:55;96262.59;;;6.81;100.00
8366;BME280;4220;42.502;24.188;2022-12-05T05:56:21;96255.50;;;6.81;100.00
8366;BME280;4220;42.502;24.188;2022-12-05T05:58:55;96205.19;;;6.52;100.00
8366;BME280;4220;42.502;24.188;2022-12-05T06:01:23;96252.88;;;6.81;100.00
8366;BME280;4220;42.502;24.188;2022-12-05T06:03:50;96266.69;;;6.83;100.00
8366;BME280;4220;42.502;24.188;2022-12-05T06:06:17;96229.03;;;6.67;100.00
8366;BME280;4220;42.502;24.188;2022-12-05T06:08:45;96256.34;;;6.82;100.00
8366;BME280;4220;42.502;24.188;2022-12-05T06:11:14;96258.13;;;6.81;100.00
8366;BME280;4220;42.502;24.188;2022-12-05T06:13:41;96259.78;;;6.82;100.00
8366;BME280;4220;42.502;24.188;2022-12-05T06:16:12;96269.19;;;6.85;100.00
8366;BME280;4220;42.502;24.188;2022-12-05T06:18:39;96272.81;;;6.84;100.00
8366;BME280;4220;42.502;24.188;2022-12-05T06:21:06;96259.50;;;6.69;100.00
8366;BME280;4220;42.502;24.188;2022-12-05T06:23:34;96279.22;;;6.81;100.00
8366;BME280;4220;42.502;24.188;2022-12-05T06:26:03;96279.72;;;6.85;100.00
8366;BME280;4220;42.502;24.188;2022-12-05T06:28:30;96285.84;;;6.85;100.00
8366;BME280;4220;42.502;24.188;2022-12-05T06:30:57;96267.22;;;6.79;100.00
8366;BME280;4220;42.502;24.188;2022-12-05T06:33:27;96278.56;;;6.87;100.00
8366;BME280;4220;42.502;24.188;2022-12-05T06:36:05;96285.84;;;6.85;100.00
8366;BME280;4220;42.502;24.188;2022-12-05T06:38:32;96277.94;;;6.77;100.00
8366;BME280;4220;42.502;24.188;2022-12-05T06:40:59;96256.22;;;6.59;100.00
8366;BME280;4220;42.502;24.188;2022-12-05T06:43:26;96293.75;;;6.77;100.00
8366;BME280;4220;42.502;24.188;2022-12-05T06:45:52;96297.72;;;6.73;100.00
8366;BME280;4220;42.502;24.188;2022-12-05T06:48:19;96296.72;;;6.74;100.00
8366;BME280;4220;42.502;24.188;2022-12-05T06:50:51;96298.38;;;6.75;100.00
8366;BME280;4220;42.502;24.188;2022-12-05T06:53:19;96301.47;;;6.79;100.00
8366;BME280;4220;42.502;24.188;2022-12-05T06:55:54;96291.13;;;6.61;100.00
8366;BME280;4220;42.502;24.188;2022-12-05T06:58:21;96288.84;;;6.58;100.00
8366;BME280;4220;42.502;24.188;2022-12-05T07:00:48;96298.72;;;6.64;100.00
8366;BME280;4220;42.502;24.188;2022-12-05T07:03:32;96294.13;;;6.58;100.00
8366;BME280;4220;42.502;24.188;2022-12-05T07:06:01;96300.88;;;6.52;100.00
8366;BME280;4220;42.502;24.188;2022-12-05T07:08:28;96299.06;;;6.53;100.00
8366;BME280;4220;42.502;24.188;2022-12-05T07:10:54;96300.69;;;6.62;100.00
8366;BME280;4220;42.502;24.188;2022-12-05T07:13:21;96294.78;;;6.60;100.00
8366;BME280;4220;42.502;24.188;2022-12-05T07:15:49;96293.13;;;6.59;100.00
8366;BME280;4220;42.502;24.188;2022-12-05T07:18:17;96299.03;;;6.69;100.00
8366;BME280;4220;42.502;24.188;2022-12-05T07:20:44;96301.03;;;6.59;100.00
8366;BME280;4220;42.502;24.188;2022-12-05T07:23:12;96297.41;;;6.60;100.00
8366;BME280;4220;42.502;24.188;2022-12-05T07:25:39;96299.53;;;6.65;100.00
8366;BME280;4220;42.502;24.188;2022-12-05T07:28:07;96255.94;;;6.38;100.00
8366;BME280;4220;42.502;24.188;2022-12-05T07:30:34;96302.16;;;6.73;100.00
8366;BME280;4220;42.502;24.188;2022-12-05T07:33:01;96292.97;;;6.61;100.00
8366;BME280;4220;42.502;24.188;2022-12-05T07:35:27;96303.16;;;6.64;100.00
8366;BME280;4220;42.502;24.188;2022-12-05T07:37:54;96305.97;;;6.70;100.00
8366;BME280;4220;42.502;24.188;2022-12-05T07:40:22;96305.31;;;6.68;100.00
8366;BME280;4220;42.502;24.188;2022-12-05T07:42:49;96296.06;;;6.72;100.00
8366;BME280;4220;42.502;24.188;2022-12-05T07:45:17;96297.22;;;6.70;100.00
8366;BME280;4220;42.502;24.188;2022-12-05T07:47:44;96297.41;;;6.68;100.00
8366;BME280;4220;42.502;24.188;2022-12-05T07:50:11;96305.66;;;6.65;100.00
8366;BME280;4220;42.502;24.188;2022-12-05T07:52:39;96297.41;;;6.68;100.00
8366;BME280;4220;42.502;24.188;2022-12-05T07:55:07;96249.69;;;6.31;100.00
8366;BME280;4220;42.502;24.188;2022-12-05T07:57:35;96294.59;;;6.62;100.00
8366;BME280;4220;42.502;24.188;2022-12-05T08:00:03;96298.06;;;6.62;100.00
8366;BME280;4220;42.502;24.188;2022-12-05T08:02:31;96312.38;;;6.76;100.00
8366;BME280;4220;42.502;24.188;2022-12-05T08:04:58;96309.41;;;6.79;100.00
8366;BME280;4220;42.502;24.188;2022-12-05T08:07:24;96303.97;;;6.80;100.00
8366;BME280;4220;42.502;24.188;2022-12-05T08:09:51;96310.22;;;6.87;100.00
8366;BME280;4220;42.502;24.188;2022-12-05T08:12:18;96306.75;;;6.87;100.00
8366;BME280;4220;42.502;24.188;2022-12-05T08:14:46;96307.91;;;6.92;100.00
8366;BME280;4220;42.502;24.188;2022-12-05T08:17:13;96304.94;;;6.87;100.00
8366;BME280;4220;42.502;24.188;2022-12-05T08:19:40;96297.34;;;6.92;100.00
8366;BME280;4220;42.502;24.188;2022-12-05T08:22:06;96306.09;;;6.85;100.00
8366;BME280;4220;42.502;24.188;2022-12-05T08:24:33;96305.47;;;6.75;100.00
8366;BME280;4220;42.502;24.188;2022-12-05T08:27:00;96261.34;;;6.44;100.00
8366;BME280;4220;42.502;24.188;2022-12-05T08:29:27;96307.25;;;6.82;100.00
8366;BME280;4220;42.502;24.188;2022-12-05T08:31:55;96299.16;;;6.84;100.00
8366;BME280;4220;42.502;24.188;2022-12-05T08:34:22;96217.72;;;6.50;100.00
8366;BME280;4220;42.502;24.188;2022-12-05T08:36:49;96291.19;;;7.08;100.00
8366;BME280;4220;42.502;24.188;2022-12-05T08:39:17;96290.97;;;7.17;100.00
8366;BME280;4220;42.502;24.188;2022-12-05T08:41:46;96204.25;;;6.76;100.00
8366;BME280;4220;42.502;24.188;2022-12-05T08:44:13;96275.31;;;7.24;100.00
8366;BME280;4220;42.502;24.188;2022-12-05T08:46:42;96289.63;;;7.30;100.00
8366;BME280;4220;42.502;24.188;2022-12-05T08:49:11;96281.44;;;7.16;100.00
8366;BME280;4220;42.502;24.188;2022-12-05T08:51:39;96269.88;;;7.17;100.00
8366;BME280;4220;42.502;24.188;2022-12-05T08:54:06;96266.97;;;7.35;100.00
8366;BME280;4220;42.502;24.188;2022-12-05T08:56:33;96270.56;;;7.42;100.00
8366;BME280;4220;42.502;24.188;2022-12-05T08:59:00;96267.81;;;7.36;100.00
8366;BME280;4220;42.502;24.188;2022-12-05T09:01:27;96281.72;;;7.60;100.00
8366;BME280;4220;42.502;24.188;2022-12-05T09:03:56;96241.44;;;7.36;100.00
8366;BME280;4220;42.502;24.188;2022-12-05T09:06:27;96293.34;;;7.74;100.00
8366;BME280;4220;42.502;24.188;2022-12-05T09:08:55;96288.75;;;7.68;100.00
8366;BME280;4220;42.502;24.188;2022-12-05T09:11:23;96284.88;;;7.56;100.00
8366;BME280;4220;42.502;24.188;2022-12-05T09:13:52;96287.47;;;7.64;100.00
8366;BME280;4220;42.502;24.188;2022-12-05T09:16:21;96289.81;;;7.59;100.00
8366;BME280;4220;42.502;24.188;2022-12-05T09:18:49;96273.50;;;7.47;100.00
8366;BME280;4220;42.502;24.188;2022-12-05T09:21:17;96273.09;;;7.36;100.00
8366;BME280;4220;42.502;24.188;2022-12-05T09:23:46;96275.53;;;7.37;100.00
8366;BME280;4220;42.502;24.188;2022-12-05T09:26:15;96225.38;;;7.14;100.00
8366;BME280;4220;42.502;24.188;2022-12-05T09:28:42;96263.16;;;7.46;100.00
8366;BME280;4220;42.502;24.188;2022-12-05T09:31:11;96217.09;;;7.17;100.00
8366;BME280;4220;42.502;24.188;2022-12-05T09:33:38;96265.16;;;7.44;100.00
8366;BME280;4220;42.502;24.188;2022-12-05T09:36:07;96261.34;;;7.46;100.00
8366;BME280;4220;42.502;24.188;2022-12-05T09:38:34;96252.09;;;7.42;100.00
8366;BME280;4220;42.502;24.188;2022-12-05T09:41:08;96260.50;;;7.46;100.00
8366;BME280;4220;42.502;24.188;2022-12-05T09:43:44;96268.09;;;7.49;100.00
8366;BME280;4220;42.502;24.188;2022-12-05T09:46:20;96254.88;;;7.49;100.00
8366;BME280;4220;42.502;24.188;2022-12-05T09:48:52;96257.53;;;7.49;100.00
8366;BME280;4220;42.502;24.188;2022-12-05T09:51:20;96264.00;;;7.38;100.00
8366;BME280;4220;42.502;24.188;2022-12-05T09:53:47;96261.38;;;7.07;100.00
8366;BME280;4220;42.502;24.188;2022-12-05T09:56:20;96213.28;;;6.89;100.00
8366;BME280;4220;42.502;24.188;2022-12-05T09:58:50;96249.78;;;7.16;100.00
8366;BME280;4220;42.502;24.188;2022-12-05T10:01:32;96236.38;;;7.26;100.00
8366;BME280;4220;42.502;24.188;2022-12-05T10:04:25;96237.00;;;7.28;100.00
8366;BME280;4220;42.502;24.188;2022-12-05T10:07:00;96234.84;;;7.32;100.00
8366;BME280;4220;42.502;24.188;2022-12-05T10:09:46;96234.03;;;7.31;100.00
8366;BME280;4220;42.502;24.188;2022-12-05T10:12:31;96233.09;;;7.24;100.00
8366;BME280;4220;42.502;24.188;2022-12-05T10:15:09;96229.44;;;7.25;100.00
8366;BME280;4220;42.502;24.188;2022-12-05T10:17:40;96236.03;;;7.29;100.00
8366;BME280;4220;42.502;24.188;2022-12-05T10:20:12;96239.50;;;7.30;100.00
8366;BME280;4220;42.502;24.188;2022-12-05T10:22:43;96240.78;;;7.34;100.00
8366;BME280;4220;42.502;24.188;2022-12-05T10:25:13;96238.97;;;7.34;100.00
8366;BME280;4220;42.502;24.188;2022-12-05T10:27:48;96220.72;;;7.24;100.00
8366;BME280;4220;42.502;24.188;2022-12-05T10:30:17;96229.91;;;7.29;100.00
8366;BME280;4220;42.502;24.188;2022-12-05T10:32:51;96233.84;;;7.33;100.00
8366;BME280;4220;42.502;24.188;2022-12-05T10:35:20;96227.28;;;7.29;100.00
8366;BME280;4220;42.502;24.188;2022-12-05T10:37:50;96228.56;;;7.33;100.00
8366;BME280;4220;42.502;24.188;2022-12-05T10:40:18;96237.31;;;7.33;100.00
8366;BME280;4220;42.502;24.188;2022-12-05T10:42:48;96236.50;;;7.33;100.00
8366;BME280;4220;42.502;24.188;2022-12-05T10:45:18;96229.59;;;7.32;100.00
8366;BME280;4220;42.502;24.188;2022-12-05T10:47:46;96233.69;;;7.34;100.00
8366;BME280;4220;42.502;24.188;2022-12-05T10:50:22;96218.66;;;7.35;100.00
8366;BME280;4220;42.502;24.188;2022-12-05T10:52:51;96221.97;;;7.37;100.00
8366;BME280;4220;42.502;24.188;2022-12-05T10:55:18;96227.88;;;7.39;100.00
8366;BME280;4220;42.502;24.188;2022-12-05T10:57:50;96217.66;;;7.36;100.00
8366;BME280;4220;42.502;24.188;2022-12-05T11:00:21;96216.38;;;7.32;100.00
8366;BME280;4220;42.502;24.188;2022-12-05T11:02:50;96206.13;;;7.37;100.00
8366;BME280;4220;42.502;24.188;2022-12-05T11:05:27;96209.06;;;7.42;100.00
8366;BME280;4220;42.502;24.188;2022-12-05T11:07:55;96199.38;;;7.34;100.00
8366;BME280;4220;42.502;24.188;2022-12-05T11:10:32;96207.41;;;7.41;100.00
8366;BME280;4220;42.502;24.188;2022-12-05T11:13:13;96202.38;;;7.31;100.00
8366;BME280;4220;42.502;24.188;2022-12-05T11:15:44;96204.97;;;7.39;100.00
8366;BME280;4220;42.502;24.188;2022-12-05T11:18:27;96203.41;;;7.45;100.00
8366;BME280;4220;42.502;24.188;2022-12-05T11:20:54;96200.44;;;7.48;100.00
8366;BME280;4220;42.502;24.188;2022-12-05T11:23:25;96196.63;;;7.50;100.00
8366;BME280;4220;42.502;24.188;2022-12-05T11:25:53;96194.19;;;7.49;100.00
8366;BME280;4220;42.502;24.188;2022-12-05T11:28:40;96196.63;;;7.50;100.00
8366;BME280;4220;42.502;24.188;2022-12-05T11:31:20;96193.66;;;7.53;100.00
8366;BME280;4220;42.502;24.188;2022-12-05T11:34:00;96180.91;;;7.57;100.00
8366;BME280;4220;42.502;24.188;2022-12-05T11:36:36;96180.56;;;7.60;100.00
8366;BME280;4220;42.502;24.188;2022-12-05T11:39:05;96175.47;;;7.58;100.00
8366;BME280;4220;42.502;24.188;2022-12-05T11:41:45;96156.97;;;7.58;100.00
8366;BME280;4220;42.502;24.188;2022-12-05T11:44:30;96162.91;;;7.60;100.00
8366;BME280;4220;42.502;24.188;2022-12-05T11:47:10;96161.44;;;7.58;100.00
8366;BME280;4220;42.502;24.188;2022-12-05T11:50:01;96159.09;;;7.63;100.00
8366;BME280;4220;42.502;24.188;2022-12-05T11:52:40;96165.50;;;7.68;100.00
8366;BME280;4220;42.502;24.188;2022-12-05T11:55:15;96156.75;;;7.68;100.00
8366;BME280;4220;42.502;24.188;2022-12-05T11:58:13;96160.75;;;7.64;100.00
8366;BME280;4220;42.502;24.188;2022-12-05T12:00:56;96152.44;;;7.67;100.00
8366;BME280;4220;42.502;24.188;2022-12-05T12:03:44;96139.25;;;7.67;100.00
8366;BME280;4220;42.502;24.188;2022-12-05T12:06:26;96095.78;;;7.55;100.00
8366;BME280;4220;42.502;24.188;2022-12-05T12:09:20;96134.00;;;7.81;100.00
8366;BME280;4220;42.502;24.188;2022-12-05T12:11:55;96138.38;;;7.89;100.00
8366;BME280;4220;42.502;24.188;2022-12-05T12:14:27;96141.84;;;7.89;100.00
8366;BME280;4220;42.502;24.188;2022-12-05T12:17:06;96140.25;;;7.88;100.00
8366;BME280;4220;42.502;24.188;2022-12-05T12:19:48;96129.72;;;7.80;100.00
8366;BME280;4220;42.502;24.188;2022-12-05T12:22:33;96140.75;;;7.84;100.00
8366;BME280;4220;42.502;24.188;2022-12-05T12:25:23;96138.38;;;7.89;100.00
8366;BME280;4220;42.502;24.188;2022-12-05T12:28:01;96132.59;;;7.94;100.00
8366;BME280;4220;42.502;24.188;2022-12-05T12:30:38;96136.03;;;7.94;100.00
8366;BME280;4220;42.502;24.188;2022-12-05T12:33:22;96132.75;;;7.92;100.00
8366;BME280;4220;42.502;24.188;2022-12-05T12:35:57;96133.38;;;7.94;100.00
8366;BME280;4220;42.502;24.188;2022-12-05T12:38:42;96120.44;;;7.84;100.00
8366;BME280;4220;42.502;24.188;2022-12-05T12:41:24;96125.03;;;7.90;100.00
8366;BME280;4220;42.502;24.188;2022-12-05T12:44:07;96079.06;;;7.62;100.00
8366;BME280;4220;42.502;24.188;2022-12-05T12:46:46;96115.91;;;7.78;100.00
8366;BME280;4220;42.502;24.188;2022-12-05T12:49:29;96118.69;;;7.77;100.00
8366;BME280;4220;42.502;24.188;2022-12-05T12:52:03;96129.50;;;7.67;100.00
8366;BME280;4220;42.502;24.188;2022-12-05T12:54:53;96120.91;;;7.51;100.00
8366;BME280;4220;42.502;24.188;2022-12-05T12:57:26;96016.50;;;6.88;100.00
8366;BME280;4220;42.502;24.188;2022-12-05T13:00:03;96082.44;;;7.34;100.00
8366;BME280;4220;42.502;24.188;2022-12-05T13:02:35;96112.81;;;7.52;100.00
8366;BME280;4220;42.502;24.188;2022-12-05T13:05:14;96110.84;;;7.32;100.00
8366;BME280;4220;42.502;24.188;2022-12-05T13:07:46;96105.97;;;7.20;100.00
8366;BME280;4220;42.502;24.188;2022-12-05T13:10:22;96102.19;;;7.15;100.00
8366;BME280;4220;42.502;24.188;2022-12-05T13:12:52;96114.34;;;7.01;100.00
8366;BME280;4220;42.502;24.188;2022-12-05T13:15:25;96100.91;;;7.11;100.00
8366;BME280;4220;42.502;24.188;2022-12-05T13:17:57;96092.53;;;7.30;100.00
8366;BME280;4220;42.502;24.188;2022-12-05T13:20:27;96098.31;;;7.48;100.00
8366;BME280;4220;42.502;24.188;2022-12-05T13:22:56;96096.56;;;7.41;100.00
8366;BME280;4220;42.502;24.188;2022-12-05T13:25:27;96090.72;;;7.31;100.00
8366;BME280;4220;42.502;24.188;2022-12-05T13:27:58;96091.28;;;7.41;100.00
8366;BME280;4220;42.502;24.188;2022-12-05T13:30:26;96084.69;;;7.59;100.00
8366;BME280;4220;42.502;24.188;2022-12-05T13:32:56;96091.69;;;7.89;100.00